Terminal Aerodrome Forecast
Issued by NWS

Home | Current Version | Previous Version | Graphics & Text | Print | Product List | Glossary On
Versions: 1 2 3 4 5 6 7 8 9 10 11 12 13 14 15
000
FTUS43 KMPX 241721
TAFRWF
TAF
KRWF 241721Z 2418/2518 31010KT P6SM BKN250
     FM250100 28005KT P6SM FEW250
     FM251500 29012G18KT P6SM SCT250=

USA.gov is the U.S. government's official web portal to all federal, state and local government web resources and services.